WXForecasting.com
Aberdeen, SD - Weather Station Data
Daily Summary for May 20, 2017 Units:  English    Metric   Both
« Previous Day
Next Day »
Daily Weekly Monthly Yearly Custom
  High: Low: Average:
Temperature: 51.0 °F 39.4 °F 45.5 °F
Dew Point: 40.0 °F 33.0 °F 36.9 °F
Humidity: 88 % 50 % 73 %
Wind Speed: 16.0 mph 0.0 mph 5.6 mph
Wind Gust: 22.0 mph - -
Wind:- - ENE
Pressure: 30.20 in 29.98 in -
Precipitation: 0.16 in    
Historical Graphs
 
 
Tabular Data for May 20, 2017
Time Temperature Dew Point Pressure Wind Wind Speed Wind Gust Humidity Rainfall Rate (Hourly) solar Conditions
00:14 51.0 °F 33.0 °F 30.20 in ENE 3.0 mph 5.0 mph 50 % 0.00 in 0 W/m2
00:29 50.8 °F 33.0 °F 30.19 in Calm   4.0 mph 51 % 0.00 in 0 W/m2
00:44 50.5 °F 34.0 °F 30.19 in Calm   5.0 mph 53 % 0.00 in 0 W/m2
00:59 50.3 °F 34.0 °F 30.18 in ENE 3.0 mph 4.0 mph 53 % 0.00 in 0 W/m2
01:14 50.0 °F 34.0 °F 30.18 in ENE 4.0 mph 4.0 mph 55 % 0.00 in 0 W/m2
01:29 49.8 °F 34.0 °F 30.17 in Calm   3.0 mph 55 % 0.00 in 0 W/m2
01:44 49.6 °F 34.0 °F 30.16 in ENE 3.0 mph 4.0 mph 56 % 0.00 in 0 W/m2
01:59 49.5 °F 34.0 °F 30.16 in ENE 4.0 mph 6.0 mph 55 % 0.00 in 0 W/m2
02:14 49.4 °F 35.0 °F 30.15 in ENE 3.0 mph 4.0 mph 57 % 0.00 in 0 W/m2
02:29 49.4 °F 35.0 °F 30.14 in NE 2.0 mph 7.0 mph 57 % 0.00 in 0 W/m2
02:44 49.2 °F 35.0 °F 30.14 in NE 1.0 mph 4.0 mph 58 % 0.00 in 0 W/m2
02:59 49.1 °F 35.0 °F 30.14 in Calm   4.0 mph 59 % 0.00 in 0 W/m2
03:14 49.0 °F 35.0 °F 30.14 in NE 1.0 mph 5.0 mph 59 % 0.00 in 0 W/m2
03:29 49.0 °F 35.0 °F 30.13 in ENE 3.0 mph 5.0 mph 59 % 0.00 in 0 W/m2
03:44 49.1 °F 35.0 °F 30.13 in NE 1.0 mph 6.0 mph 58 % 0.00 in 0 W/m2
03:59 48.8 °F 35.0 °F 30.13 in NE 5.0 mph 9.0 mph 59 % 0.00 in 0 W/m2
04:14 48.8 °F 35.0 °F 30.13 in NE 3.0 mph 9.0 mph 59 % 0.00 in 0 W/m2
04:29 48.8 °F 35.0 °F 30.12 in NE 4.0 mph 8.0 mph 59 % 0.00 in 0 W/m2
04:44 48.7 °F 35.0 °F 30.12 in NNE 3.0 mph 8.0 mph 59 % 0.00 in 0 W/m2
04:59 48.6 °F 35.0 °F 30.11 in NE 2.0 mph 8.0 mph 59 % 0.00 in 0 W/m2
05:14 48.6 °F 35.0 °F 30.11 in NE 4.0 mph 10.0 mph 59 % 0.00 in 0 W/m2
05:30 48.5 °F 35.0 °F 30.10 in NE 4.0 mph 9.0 mph 59 % 0.00 in 0 W/m2
05:44 48.4 °F 35.0 °F 30.10 in NE 1.0 mph 9.0 mph 60 % 0.00 in 0 W/m2
06:15 48.3 °F 35.0 °F 30.10 in NE 5.0 mph 6.0 mph 60 % 0.00 in 0 W/m2
06:30 48.2 °F 35.0 °F 30.10 in NE 3.0 mph 6.0 mph 60 % 0.00 in 7 W/m2
06:45 48.2 °F 35.0 °F 30.10 in North 5.0 mph 6.0 mph 61 % 0.00 in 12 W/m2
07:00 48.1 °F 35.0 °F 30.09 in NE 3.0 mph 9.0 mph 60 % 0.00 in 26 W/m2
07:15 47.7 °F 37.0 °F 30.09 in ENE 4.0 mph 11.0 mph 66 % 0.00 in 32 W/m2
07:30 46.9 °F 37.0 °F 30.08 in NNE 3.0 mph 6.0 mph 69 % 0.00 in 51 W/m2
07:45 47.2 °F 37.0 °F 30.08 in ENE 4.0 mph 9.0 mph 68 % 0.00 in 90 W/m2
08:00 47.6 °F 37.0 °F 30.08 in NE 7.0 mph 12.0 mph 68 % 0.00 in 105 W/m2
08:15 47.7 °F 37.0 °F 30.08 in NE 5.0 mph 11.0 mph 67 % 0.00 in 114 W/m2
08:30 47.6 °F 38.0 °F 30.07 in NE 3.0 mph 15.0 mph 69 % 0.00 in 137 W/m2
08:45 47.3 °F 38.0 °F 30.07 in ENE 5.0 mph 14.0 mph 70 % 0.00 in 72 W/m2
09:00 46.9 °F 38.0 °F 30.07 in NNE 9.0 mph 14.0 mph 71 % 0.00 in 121 W/m2
09:15 47.2 °F 38.0 °F 30.07 in ENE 8.0 mph 11.0 mph 70 % 0.00 in 127 W/m2
09:30 47.6 °F 37.0 °F 30.07 in ENE 5.0 mph 12.0 mph 67 % 0.00 in 130 W/m2
09:45 47.8 °F 37.0 °F 30.07 in ENE 5.0 mph 13.0 mph 66 % 0.00 in 121 W/m2
10:00 48.0 °F 37.0 °F 30.07 in ENE 5.0 mph 13.0 mph 66 % 0.00 in 172 W/m2
10:15 48.2 °F 36.0 °F 30.07 in NE 5.0 mph 17.0 mph 64 % 0.00 in 179 W/m2
10:30 48.3 °F 37.0 °F 30.07 in NE 9.0 mph 16.0 mph 64 % 0.00 in 155 W/m2
10:46 48.0 °F 37.0 °F 30.07 in NNE 6.0 mph 14.0 mph 65 % 0.00 in 144 W/m2
11:00 47.4 °F 36.0 °F 30.06 in NNE 4.0 mph 11.0 mph 66 % 0.00 in 167 W/m2
11:15 47.8 °F 36.0 °F 30.05 in NE 4.0 mph 16.0 mph 65 % 0.00 in 186 W/m2
11:30 47.8 °F 37.0 °F 30.05 in ENE 8.0 mph 14.0 mph 67 % 0.00 in 193 W/m2
11:45 47.4 °F 38.0 °F 30.05 in NE 12.0 mph 15.0 mph 69 % 0.00 in 172 W/m2
12:00 46.7 °F 38.0 °F 30.05 in NE 5.0 mph 17.0 mph 73 % 0.00 in 142 W/m2
12:16 46.4 °F 38.0 °F 30.05 in ENE 14.0 mph 19.0 mph 72 % 0.00 in 165 W/m2
12:31 45.5 °F 37.0 °F 30.04 in NE 5.0 mph 15.0 mph 73 % 0.01 in 165 W/m2
12:46 44.6 °F 38.0 °F 30.03 in NE 7.0 mph 19.0 mph 77 % 0.01 in 190 W/m2
13:01 44.0 °F 38.0 °F 30.02 in NE 12.0 mph 19.0 mph 78 % 0.01 in 181 W/m2
13:16 43.8 °F 38.0 °F 30.02 in NNE 4.0 mph 15.0 mph 79 % 0.02 in 105 W/m2
13:31 43.4 °F 38.0 °F 30.03 in NNE 4.0 mph 18.0 mph 80 % 0.01 in 153 W/m2
13:46 43.3 °F 38.0 °F 30.02 in North 10.0 mph 18.0 mph 81 % 0.01 in 167 W/m2
14:01 43.8 °F 39.0 °F 30.02 in NNE 5.0 mph 13.0 mph 82 % 0.02 in 258 W/m2
14:16 43.6 °F 38.0 °F 30.02 in NE 5.0 mph 18.0 mph 82 % 0.02 in 181 W/m2
14:31 43.5 °F 39.0 °F 30.01 in North 5.0 mph 16.0 mph 83 % 0.02 in 171 W/m2
14:46 44.0 °F 39.0 °F 30.01 in NNE 4.0 mph 16.0 mph 83 % 0.02 in 193 W/m2
15:01 44.3 °F 39.0 °F 30.00 in NE 7.0 mph 18.0 mph 82 % 0.01 in 200 W/m2
15:16 44.5 °F 40.0 °F 30.01 in NNE 8.0 mph 16.0 mph 83 % 0.00 in 195 W/m2
15:31 44.0 °F 39.0 °F 30.01 in ENE 11.0 mph 22.0 mph 83 % 0.01 in 171 W/m2
15:46 43.8 °F 39.0 °F 30.01 in North 4.0 mph 16.0 mph 83 % 0.01 in 146 W/m2
16:01 43.9 °F 39.0 °F 30.00 in NE 3.0 mph 17.0 mph 84 % 0.01 in 141 W/m2
16:16 44.0 °F 40.0 °F 29.99 in NNE 11.0 mph 16.0 mph 85 % 0.01 in 151 W/m2
16:31 43.8 °F 40.0 °F 30.00 in NE 2.0 mph 16.0 mph 85 % 0.01 in 160 W/m2
16:46 43.8 °F 40.0 °F 30.00 in North 8.0 mph 15.0 mph 86 % 0.01 in 97 W/m2
17:01 43.6 °F 39.0 °F 30.00 in NNE 7.0 mph 16.0 mph 85 % 0.01 in 67 W/m2
17:16 43.4 °F 40.0 °F 30.00 in NNE 10.0 mph 14.0 mph 86 % 0.01 in 47 W/m2
17:31 43.3 °F 39.0 °F 30.00 in North 11.0 mph 15.0 mph 86 % 0.01 in 91 W/m2
17:46 43.2 °F 39.0 °F 29.99 in North 16.0 mph 20.0 mph 86 % 0.02 in 76 W/m2
18:01 43.3 °F 40.0 °F 30.00 in NNE 9.0 mph 15.0 mph 87 % 0.02 in 53 W/m2
18:16 43.1 °F 39.0 °F 30.00 in ENE 5.0 mph 16.0 mph 86 % 0.02 in 98 W/m2
18:31 43.1 °F 39.0 °F 30.00 in North 3.0 mph 18.0 mph 85 % 0.02 in 86 W/m2
18:46 43.1 °F 39.0 °F 29.99 in North 4.0 mph 13.0 mph 85 % 0.02 in 42 W/m2
19:02 42.5 °F 38.0 °F 29.99 in NNE 10.0 mph 16.0 mph 85 % 0.02 in 70 W/m2
19:16 42.4 °F 39.0 °F 29.99 in NNE 10.0 mph 13.0 mph 86 % 0.01 in 60 W/m2
19:31 42.2 °F 38.0 °F 29.98 in North 5.0 mph 11.0 mph 86 % 0.02 in 42 W/m2
19:46 42.2 °F 38.0 °F 29.98 in NNE 4.0 mph 12.0 mph 86 % 0.01 in 32 W/m2
20:01 42.1 °F 38.0 °F 29.98 in NNE 8.0 mph 15.0 mph 86 % 0.01 in 12 W/m2
20:16 41.8 °F 38.0 °F 29.98 in North 5.0 mph 11.0 mph 87 % 0.02 in 14 W/m2
20:31 41.4 °F 38.0 °F 29.98 in ENE 3.0 mph 14.0 mph 86 % 0.01 in 9 W/m2
20:46 41.2 °F 37.0 °F 29.98 in NNE 14.0 mph 15.0 mph 86 % 0.01 in 0 W/m2
21:02 40.7 °F 37.0 °F 29.98 in North 10.0 mph 14.0 mph 86 % 0.01 in 0 W/m2
21:17 40.5 °F 37.0 °F 29.98 in NNW 6.0 mph 12.0 mph 87 % 0.01 in 0 W/m2
21:31 40.4 °F 37.0 °F 29.98 in NNE 4.0 mph 12.0 mph 87 % 0.01 in 0 W/m2
21:47 40.4 °F 37.0 °F 29.98 in North 5.0 mph 14.0 mph 88 % 0.01 in 0 W/m2
22:02 40.6 °F 37.0 °F 29.98 in North 3.0 mph 14.0 mph 88 % 0.01 in 0 W/m2
22:17 40.2 °F 37.0 °F 29.99 in North 10.0 mph 17.0 mph 87 % 0.00 in 0 W/m2
22:32 40.0 °F 37.0 °F 29.99 in NNE 2.0 mph 15.0 mph 87 % 0.00 in 0 W/m2
22:47 39.8 °F 37.0 °F 29.99 in NNE 9.0 mph 12.0 mph 88 % 0.01 in 0 W/m2
23:02 39.7 °F 37.0 °F 29.99 in NNW 10.0 mph 18.0 mph 88 % 0.01 in 0 W/m2
23:17 39.5 °F 36.0 °F 29.99 in North 8.0 mph 17.0 mph 87 % 0.02 in 0 W/m2
23:32 39.5 °F 36.0 °F 29.99 in NNW 10.0 mph 12.0 mph 88 % 0.02 in 0 W/m2
23:47 39.4 °F 36.0 °F 29.98 in NW 9.0 mph 11.0 mph 88 % 0.02 in 0 W/m2
Compliments of Weather Underground - 1 mb